createdAt,value
2019-05-29T00:00:42.135Z,17.55
2019-05-29T00:01:40.851Z,17.46
2019-05-29T00:02:39.567Z,17.51
2019-05-29T00:03:38.177Z,17.48
2019-05-29T00:04:36.827Z,17.43
2019-05-29T00:05:35.492Z,17.43
2019-05-29T00:06:34.056Z,17.46
2019-05-29T00:07:32.613Z,17.56
2019-05-29T00:08:31.416Z,17.54
2019-05-29T00:09:29.976Z,17.54
2019-05-29T00:10:28.510Z,17.66
2019-05-29T00:11:27.185Z,17.68
2019-05-29T00:12:25.763Z,17.66
2019-05-29T00:13:24.377Z,17.58
2019-05-29T00:14:27.295Z,17.62
2019-05-29T00:15:21.519Z,17.64
2019-05-29T00:16:20.115Z,17.64
2019-05-29T00:17:18.799Z,17.74
2019-05-29T00:18:18.591Z,17.75
2019-05-29T00:19:16.055Z,17.62
2019-05-29T00:20:14.712Z,17.64
2019-05-29T00:21:14.603Z,17.54
2019-05-29T00:22:12.363Z,17.48
2019-05-29T00:23:10.561Z,17.46
2019-05-29T00:24:09.055Z,17.49
2019-05-29T00:25:08.510Z,17.41
2019-05-29T00:26:06.348Z,17.41
2019-05-29T00:27:05.357Z,17.48
2019-05-29T00:28:03.660Z,17.44
2019-05-29T00:29:02.189Z,17.44
2019-05-29T00:30:00.816Z,17.48
2019-05-29T00:30:59.536Z,17.48
2019-05-29T00:31:58.073Z,17.44
2019-05-29T00:32:56.696Z,17.49
2019-05-29T00:33:55.240Z,17.49
2019-05-29T00:34:53.797Z,17.34
2019-05-29T00:35:52.381Z,17.26
2019-05-29T00:36:51.124Z,17.26
2019-05-29T00:37:49.763Z,17.25
2019-05-29T00:38:48.490Z,17.22
2019-05-29T00:39:47.180Z,17.19
2019-05-29T00:40:45.729Z,17.38
2019-05-29T00:41:44.300Z,17.07
2019-05-29T00:42:42.933Z,17.22
2019-05-29T00:43:41.574Z,17.23
2019-05-29T00:44:40.144Z,17.26
2019-05-29T00:45:38.707Z,17.26
2019-05-29T00:46:37.589Z,17.25
2019-05-29T00:47:36.126Z,17.19
2019-05-29T00:48:34.672Z,17.3
2019-05-29T00:49:33.312Z,17.23
2019-05-29T00:50:32.929Z,17.15
2019-05-29T00:51:30.568Z,17.18
2019-05-29T00:52:29.246Z,17.08
2019-05-29T00:53:27.908Z,17.03
2019-05-29T00:54:26.547Z,17.12
2019-05-29T00:55:25.264Z,17.08
2019-05-29T00:56:23.821Z,17.19
2019-05-29T00:57:22.393Z,17.12
2019-05-29T00:58:20.955Z,17.06
2019-05-29T00:59:19.529Z,17.25
2019-05-29T01:00:18.072Z,17.25
2019-05-29T01:01:17.486Z,17.25
2019-05-29T01:02:15.854Z,17.21
2019-05-29T01:03:14.051Z,17.21
2019-05-29T01:04:13.555Z,17.43
2019-05-29T01:05:11.966Z,17.44
2019-05-29T01:06:09.931Z,17.43
2019-05-29T01:07:08.614Z,17.4
2019-05-29T01:08:07.176Z,17.41
2019-05-29T01:09:05.786Z,17.51
2019-05-29T01:10:04.362Z,17.51
2019-05-29T01:11:03.078Z,17.44
2019-05-29T01:12:01.737Z,17.49
2019-05-29T01:13:00.305Z,17.48
2019-05-29T01:13:58.947Z,17.54
2019-05-29T01:14:57.653Z,17.52
2019-05-29T01:15:56.196Z,17.59
2019-05-29T01:16:54.811Z,17.58
2019-05-29T01:17:53.390Z,17.59
2019-05-29T01:18:51.960Z,17.63
2019-05-29T01:19:50.527Z,17.72
2019-05-29T01:20:49.198Z,17.72
2019-05-29T01:21:47.800Z,17.71
2019-05-29T01:22:46.334Z,17.74
2019-05-29T01:23:45.189Z,17.68
2019-05-29T01:24:43.883Z,17.64
2019-05-29T01:25:42.475Z,17.59
2019-05-29T01:26:41.033Z,17.72
2019-05-29T01:27:39.614Z,17.72
2019-05-29T01:28:38.209Z,17.43
2019-05-29T01:29:36.783Z,17.56
2019-05-29T01:30:35.673Z,17.48
2019-05-29T01:31:34.179Z,17.52
2019-05-29T01:32:32.728Z,17.58
2019-05-29T01:33:31.251Z,17.66
2019-05-29T01:34:29.831Z,17.75
2019-05-29T01:35:28.387Z,17.64
2019-05-29T01:36:27.139Z,17.64
2019-05-29T01:37:26.437Z,17.71
2019-05-29T01:38:24.254Z,17.62
2019-05-29T01:39:23.479Z,17.62
2019-05-29T01:40:25.046Z,17.82
2019-05-29T01:41:21.361Z,17.72
2019-05-29T01:42:19.426Z,17.7
2019-05-29T01:43:17.618Z,17.68
2019-05-29T01:44:17.281Z,17.71
2019-05-29T01:45:15.385Z,17.58
2019-05-29T01:46:13.383Z,17.68
2019-05-29T01:47:11.928Z,17.58
2019-05-29T01:48:10.826Z,17.62
2019-05-29T01:49:09.592Z,17.71
2019-05-29T01:50:08.194Z,17.78
2019-05-29T01:51:06.733Z,17.79
2019-05-29T01:52:05.402Z,17.79
2019-05-29T01:53:03.954Z,17.77
2019-05-29T01:54:02.489Z,17.71
2019-05-29T01:55:01.596Z,17.71
2019-05-29T01:56:00.157Z,17.7
2019-05-29T01:56:58.753Z,17.72
2019-05-29T01:57:57.452Z,17.79
2019-05-29T01:58:56.016Z,17.66
2019-05-29T01:59:54.591Z,17.68
2019-05-29T02:00:53.214Z,17.71
2019-05-29T02:01:51.765Z,17.64
2019-05-29T02:02:50.328Z,17.66
2019-05-29T02:03:48.930Z,17.66
2019-05-29T02:04:47.718Z,17.72
2019-05-29T02:05:46.286Z,17.66
2019-05-29T02:06:45.273Z,17.56
2019-05-29T02:07:43.821Z,17.52
2019-05-29T02:08:42.495Z,17.56
2019-05-29T02:09:41.111Z,17.44
2019-05-29T02:10:39.836Z,17.44
2019-05-29T02:11:38.424Z,17.56
2019-05-29T02:12:37.191Z,17.63
2019-05-29T02:13:35.755Z,17.59
2019-05-29T02:14:34.474Z,17.59
2019-05-29T02:15:34.096Z,17.52
2019-05-29T02:16:31.881Z,17.56
2019-05-29T02:17:30.436Z,17.58
2019-05-29T02:18:29.160Z,17.49
2019-05-29T02:19:28.178Z,17.48
2019-05-29T02:20:27.164Z,17.54
2019-05-29T02:21:24.864Z,17.44
2019-05-29T02:22:23.420Z,17.43
2019-05-29T02:23:22.130Z,17.51
2019-05-29T02:24:21.138Z,17.52
2019-05-29T02:25:19.663Z,17.51
2019-05-29T02:26:18.115Z,17.49
2019-05-29T02:27:17.276Z,17.54
2019-05-29T02:28:16.249Z,17.48
2019-05-29T02:29:13.990Z,17.55
2019-05-29T02:30:12.558Z,17.56
2019-05-29T02:31:11.296Z,17.56
2019-05-29T02:32:09.961Z,17.58
2019-05-29T02:33:08.535Z,17.58
2019-05-29T02:34:07.631Z,17.64
2019-05-29T02:35:05.892Z,17.59
2019-05-29T02:36:04.454Z,17.66
2019-05-29T02:37:03.036Z,17.62
2019-05-29T02:38:01.632Z,17.71
2019-05-29T02:39:00.266Z,17.66
2019-05-29T02:39:58.949Z,17.7
2019-05-29T02:40:57.637Z,17.58
2019-05-29T02:41:56.241Z,17.58
2019-05-29T02:42:54.946Z,17.51
2019-05-29T02:43:53.609Z,17.58
2019-05-29T02:44:52.161Z,17.56
2019-05-29T02:45:54.543Z,17.59
2019-05-29T02:46:49.529Z,17.64
2019-05-29T02:47:48.079Z,17.56
2019-05-29T02:48:46.646Z,17.43
2019-05-29T02:49:45.438Z,17.52
2019-05-29T02:50:43.996Z,17.46
2019-05-29T02:51:42.547Z,17.52
2019-05-29T02:52:41.378Z,17.54
2019-05-29T02:53:39.926Z,17.43
2019-05-29T02:54:38.476Z,17.49
2019-05-29T02:55:37.116Z,17.46
2019-05-29T02:56:35.933Z,17.44
2019-05-29T02:57:34.528Z,17.46
2019-05-29T02:58:33.100Z,17.43
2019-05-29T02:59:31.969Z,17.49
2019-05-29T03:00:31.421Z,17.46
2019-05-29T03:01:29.700Z,17.49
2019-05-29T03:02:27.900Z,17.59
2019-05-29T03:03:27.214Z,17.54
2019-05-29T03:04:26.197Z,17.55
2019-05-29T03:05:23.890Z,17.38
2019-05-29T03:06:22.707Z,17.21
2019-05-29T03:07:22.189Z,17.36
2019-05-29T03:08:19.452Z,17.4
2019-05-29T03:09:18.050Z,17.41
2019-05-29T03:10:16.574Z,17.4
2019-05-29T03:11:15.149Z,17.4
2019-05-29T03:12:13.730Z,17.36
2019-05-29T03:13:12.292Z,17.34
2019-05-29T03:14:10.932Z,17.36
2019-05-29T03:15:09.842Z,17.38
2019-05-29T03:16:11.897Z,17.43
2019-05-29T03:17:07.133Z,17.51
2019-05-29T03:18:05.766Z,17.46
2019-05-29T03:19:04.331Z,17.46
2019-05-29T03:20:03.108Z,17.48
2019-05-29T03:21:01.792Z,17.46
2019-05-29T03:22:00.370Z,17.4
2019-05-29T03:22:59.083Z,17.26
2019-05-29T03:23:57.766Z,17.25
2019-05-29T03:24:56.326Z,17.34
2019-05-29T03:25:54.870Z,17.31
2019-05-29T03:26:53.470Z,17.37
2019-05-29T03:27:52.029Z,17.38
2019-05-29T03:28:50.579Z,17.38
2019-05-29T03:29:49.196Z,17.3
2019-05-29T03:30:47.879Z,17.26
2019-05-29T03:31:47.924Z,17.25
2019-05-29T03:32:47.937Z,17.37
2019-05-29T03:33:48.551Z,17.34
2019-05-29T03:34:46.685Z,17.25
2019-05-29T03:35:47.335Z,17.06
2019-05-29T03:36:47.105Z,17.08
2019-05-29T03:37:38.959Z,17.12
2019-05-29T03:38:38.564Z,17.21
2019-05-29T03:39:36.009Z,17.06
2019-05-29T03:40:35.247Z,17.15
2019-05-29T03:41:34.844Z,17.08
2019-05-29T03:42:32.481Z,17
2019-05-29T03:43:31.480Z,16.98
2019-05-29T03:44:30.688Z,17.03
2019-05-29T03:45:28.822Z,17.08
2019-05-29T03:46:33.877Z,17
2019-05-29T03:47:26.761Z,16.89
2019-05-29T03:48:23.712Z,17.04
2019-05-29T03:49:22.264Z,16.97
2019-05-29T03:50:20.968Z,17
2019-05-29T03:51:19.570Z,16.97
2019-05-29T03:52:18.137Z,17.04
2019-05-29T03:53:16.762Z,16.98
2019-05-29T03:54:15.641Z,16.97
2019-05-29T03:55:14.241Z,17
2019-05-29T03:56:12.782Z,16.94
2019-05-29T03:57:11.578Z,16.98
2019-05-29T03:58:10.171Z,16.97
2019-05-29T03:59:08.741Z,16.97
2019-05-29T04:00:07.349Z,17.15
2019-05-29T04:01:05.989Z,17.08
2019-05-29T04:02:04.552Z,17.22
2019-05-29T04:03:03.255Z,17.28
2019-05-29T04:04:01.889Z,17.25
2019-05-29T04:05:00.479Z,16.98
2019-05-29T04:05:59.040Z,16.94
2019-05-29T04:06:57.663Z,17.07
2019-05-29T04:07:56.215Z,17.04
2019-05-29T04:08:54.878Z,17.12
2019-05-29T04:09:53.730Z,17.07
2019-05-29T04:10:52.276Z,17
2019-05-29T04:11:50.910Z,17.04
2019-05-29T04:12:49.545Z,17.12
2019-05-29T04:13:48.119Z,17.14
2019-05-29T04:14:46.653Z,17.12
2019-05-29T04:15:45.189Z,17.14
2019-05-29T04:16:58.857Z,16.97
2019-05-29T04:17:42.351Z,17
2019-05-29T04:18:41.036Z,17.08
2019-05-29T04:19:39.840Z,17.07
2019-05-29T04:20:39.028Z,17.11
2019-05-29T04:21:38.585Z,17.11
2019-05-29T04:22:36.842Z,17.12
2019-05-29T04:23:35.680Z,16.98
2019-05-29T04:24:33.912Z,16.93
2019-05-29T04:25:35.140Z,17.06
2019-05-29T04:26:32.038Z,17.04
2019-05-29T04:27:30.040Z,16.97
2019-05-29T04:28:27.952Z,17.14
2019-05-29T04:29:27.931Z,17.08
2019-05-29T04:30:24.683Z,17.08
2019-05-29T04:31:23.400Z,17.12
2019-05-29T04:32:21.954Z,17.12
2019-05-29T04:33:20.518Z,17.11
2019-05-29T04:34:19.218Z,17.11
2019-05-29T04:35:17.975Z,17.04
2019-05-29T04:36:16.604Z,17.08
2019-05-29T04:37:15.257Z,17.01
2019-05-29T04:38:13.858Z,17.01
2019-05-29T04:39:12.386Z,16.91
2019-05-29T04:40:11.006Z,17
2019-05-29T04:41:09.606Z,17.07
2019-05-29T04:42:08.186Z,17.07
2019-05-29T04:43:06.944Z,16.88
2019-05-29T04:44:05.731Z,17
2019-05-29T04:45:04.316Z,17.14
2019-05-29T04:46:02.971Z,17.08
2019-05-29T04:47:10.719Z,17.01
2019-05-29T04:48:00.161Z,17.12
2019-05-29T04:48:58.740Z,17.25
2019-05-29T04:49:57.553Z,17.06
2019-05-29T04:50:56.088Z,16.85
2019-05-29T04:51:54.636Z,16.98
2019-05-29T04:52:53.534Z,17.16
2019-05-29T04:53:52.118Z,17.04
2019-05-29T04:54:50.671Z,17.11
2019-05-29T04:55:49.342Z,17.18
2019-05-29T04:56:47.935Z,17.23
2019-05-29T04:57:46.521Z,17.14
2019-05-29T04:58:45.214Z,16.94
2019-05-29T04:59:43.880Z,16.97
2019-05-29T05:00:58.031Z,16.97
2019-05-29T05:01:41.217Z,17.11
2019-05-29T05:02:39.798Z,17.16
2019-05-29T05:03:39.387Z,17.22
2019-05-29T05:04:37.282Z,17.36
2019-05-29T05:05:35.639Z,17.37
2019-05-29T05:06:35.106Z,17.34
2019-05-29T05:07:33.186Z,17.26
2019-05-29T05:08:31.505Z,17.18
2019-05-29T05:09:31.183Z,17.37
2019-05-29T05:10:29.220Z,17.43
2019-05-29T05:11:27.440Z,17.44
2019-05-29T05:12:25.997Z,17.44
2019-05-29T05:13:24.551Z,17.21
2019-05-29T05:14:23.118Z,17.36
2019-05-29T05:15:21.681Z,17.31
2019-05-29T05:17:29.721Z,17.36
2019-05-29T05:18:28.001Z,17.4
2019-05-29T05:19:26.544Z,17.38
2019-05-29T05:20:25.260Z,17.48
2019-05-29T05:21:23.814Z,17.49
2019-05-29T05:22:22.393Z,17.31
2019-05-29T05:23:20.973Z,17.34
2019-05-29T05:24:19.685Z,17.34
2019-05-29T05:25:18.228Z,17.36
2019-05-29T05:26:16.823Z,17.43
2019-05-29T05:27:15.793Z,17.36
2019-05-29T05:28:14.340Z,17.33
2019-05-29T05:29:13.140Z,17.4
2019-05-29T05:30:11.813Z,17.43
2019-05-29T05:31:10.371Z,17.44
2019-05-29T05:32:08.961Z,17.07
2019-05-29T05:33:07.598Z,17.21
2019-05-29T05:34:06.166Z,17.37
2019-05-29T05:35:04.761Z,17.08
2019-05-29T05:36:03.456Z,17.07
2019-05-29T05:37:02.039Z,17.23
2019-05-29T05:38:00.602Z,17.21
2019-05-29T05:38:59.275Z,17.14
2019-05-29T05:39:57.918Z,17.21
2019-05-29T05:40:56.460Z,17.22
2019-05-29T05:41:55.201Z,17.22
2019-05-29T05:42:53.782Z,17.22
2019-05-29T05:43:52.541Z,17.11
2019-05-29T05:44:51.508Z,17.11
2019-05-29T05:45:50.088Z,17.15
2019-05-29T05:46:48.676Z,16.94
2019-05-29T05:47:56.764Z,17.08
2019-05-29T05:48:45.936Z,17.07
2019-05-29T05:49:44.481Z,17.04
2019-05-29T05:50:43.081Z,16.96
2019-05-29T05:51:44.227Z,17.07
2019-05-29T05:52:41.525Z,17.15
2019-05-29T05:53:39.440Z,17.23
2019-05-29T05:54:37.711Z,17.22
2019-05-29T05:55:37.586Z,17.23
2019-05-29T05:56:35.557Z,17.26
2019-05-29T05:57:33.587Z,17.37
2019-05-29T05:58:32.059Z,17.3
2019-05-29T05:59:31.529Z,17.22
2019-05-29T06:00:29.291Z,17.26
2019-05-29T06:01:27.893Z,17.33
2019-05-29T06:02:26.443Z,17.33
2019-05-29T06:03:24.994Z,17.25
2019-05-29T06:04:23.785Z,17.38
2019-05-29T06:05:22.345Z,17.38
2019-05-29T06:06:20.949Z,17.36
2019-05-29T06:07:19.651Z,17.4
2019-05-29T06:08:18.213Z,17.4
2019-05-29T06:12:34.401Z,17.46
2019-05-29T06:13:32.712Z,17.43
2019-05-29T06:16:06.773Z,17.49
2019-05-29T06:17:05.609Z,17.43
2019-05-29T06:18:19.715Z,17.54
2019-05-29T06:19:02.698Z,17.4
2019-05-29T06:20:01.335Z,17.41
2019-05-29T06:20:59.934Z,17.49
2019-05-29T06:21:58.436Z,17.59
2019-05-29T06:22:57.110Z,17.55
2019-05-29T06:24:57.338Z,17.55
2019-05-29T06:27:05.070Z,17.84
2019-05-29T06:28:03.788Z,17.81
2019-05-29T06:29:02.417Z,17.81
2019-05-29T06:30:01.097Z,17.82
2019-05-29T06:30:59.659Z,17.77
2019-05-29T06:31:58.240Z,17.72
2019-05-29T06:32:56.805Z,17.72
2019-05-29T06:33:55.335Z,17.72
2019-05-29T06:36:12.694Z,17.74
2019-05-29T06:37:11.268Z,17.9
2019-05-29T06:38:09.817Z,17.87
2019-05-29T06:39:08.372Z,18.03
2019-05-29T06:40:06.935Z,17.9
2019-05-29T06:41:05.481Z,17.89
2019-05-29T06:42:04.049Z,17.95
2019-05-29T06:43:02.583Z,17.75
2019-05-29T06:44:01.220Z,17.77
2019-05-29T06:44:59.884Z,17.89
2019-05-29T06:45:58.450Z,17.95
2019-05-29T06:46:57.264Z,17.97
2019-05-29T06:47:55.948Z,18.05
2019-05-29T06:48:59.970Z,18.07
2019-05-29T06:49:53.048Z,18.2
2019-05-29T06:50:52.283Z,18.26
2019-05-29T06:51:50.166Z,18.3
2019-05-29T06:52:48.782Z,18.32
2019-05-29T06:53:48.238Z,18.42
2019-05-29T06:54:46.084Z,18.3
2019-05-29T06:55:44.801Z,18.37
2019-05-29T06:56:43.800Z,18.42
2019-05-29T06:57:42.606Z,18.39
2019-05-29T06:58:41.864Z,18.36
2019-05-29T06:59:40.426Z,18.23
2019-05-29T07:00:39.371Z,18.36
2019-05-29T07:01:37.358Z,18.37
2019-05-29T07:02:36.348Z,18.1
2019-05-29T07:03:35.182Z,18.17
2019-05-29T07:04:32.563Z,18.33
2019-05-29T07:05:31.236Z,18.45
2019-05-29T07:06:29.778Z,18.27
2019-05-29T07:07:28.370Z,18.26
2019-05-29T07:08:37.911Z,18.42
2019-05-29T07:09:25.893Z,18.42
2019-05-29T07:10:24.500Z,18.41
2019-05-29T07:11:23.062Z,18.51
2019-05-29T07:12:21.795Z,18.27
2019-05-29T07:13:20.348Z,18.25
2019-05-29T07:14:18.991Z,18.45
2019-05-29T07:15:17.591Z,18.44
2019-05-29T07:16:16.208Z,18.45
2019-05-29T07:17:14.797Z,18.5
2019-05-29T07:18:13.507Z,18.37
2019-05-29T07:19:25.496Z,18.51
2019-05-29T07:20:10.620Z,18.48
2019-05-29T07:21:09.303Z,18.37
2019-05-29T07:22:07.957Z,18.51
2019-05-29T07:23:06.489Z,18.39
2019-05-29T07:24:05.040Z,18.5
2019-05-29T07:25:03.598Z,18.62
2019-05-29T07:29:01.865Z,18.52
2019-05-29T07:29:41.156Z,18.52
2019-05-29T07:30:42.694Z,18.58
2019-05-29T07:31:38.838Z,18.51
2019-05-29T07:32:38.646Z,18.47
2019-05-29T07:33:35.488Z,18.26
2019-05-29T07:34:49.603Z,18.37
2019-05-29T07:35:32.627Z,18.45
2019-05-29T07:36:31.158Z,18.27
2019-05-29T07:37:29.732Z,18.55
2019-05-29T07:38:28.268Z,18.78
2019-05-29T07:39:26.819Z,18.75
2019-05-29T07:40:25.543Z,19.06
2019-05-29T07:41:24.084Z,19.14
2019-05-29T07:42:22.625Z,19.18
2019-05-29T07:43:21.424Z,19.28
2019-05-29T07:44:20.047Z,19.21
2019-05-29T07:45:18.621Z,19.19
2019-05-29T07:46:17.262Z,19.31
2019-05-29T07:47:15.847Z,19.29
2019-05-29T07:56:58.286Z,19.21
2019-05-29T07:57:56.878Z,19.28
2019-05-29T07:59:02.196Z,19.13
2019-05-29T07:59:54.315Z,19.26
2019-05-29T08:01:11.475Z,19.26
2019-05-29T08:01:51.491Z,19.23
2019-05-29T08:02:50.057Z,19.36
2019-05-29T08:03:49.641Z,19.11
2019-05-29T08:04:47.283Z,19.29
2019-05-29T08:05:49.130Z,19.4
2019-05-29T08:06:49.541Z,19.44
2019-05-29T08:07:43.368Z,19.44
2019-05-29T08:08:41.647Z,19.32
2019-05-29T08:09:41.353Z,19.54
2019-05-29T08:10:39.940Z,19.95
2019-05-29T08:11:37.605Z,19.81
2019-05-29T08:12:36.206Z,19.96
2019-05-29T08:13:34.746Z,20.01
2019-05-29T08:14:33.338Z,20.18
2019-05-29T08:15:31.953Z,20.06
2019-05-29T08:16:30.579Z,20.08
2019-05-29T08:17:29.144Z,19.98
2019-05-29T08:18:27.807Z,20.1
2019-05-29T08:19:26.363Z,20.18
2019-05-29T08:20:25.204Z,20.18
2019-05-29T08:21:23.903Z,20.03
2019-05-29T08:22:33.558Z,19.94
2019-05-29T08:23:20.988Z,20.08
2019-05-29T08:24:19.612Z,20.03
2019-05-29T08:25:18.211Z,20.05
2019-05-29T08:26:16.768Z,20.29
2019-05-29T08:27:15.431Z,20.48
2019-05-29T08:28:14.136Z,20.62
2019-05-29T08:29:12.840Z,20.54
2019-05-29T08:30:11.492Z,20.52
2019-05-29T08:31:10.052Z,20.57
2019-05-29T08:32:08.640Z,20.54
2019-05-29T08:33:07.212Z,20.7
2019-05-29T08:34:05.765Z,20.84
2019-05-29T08:35:04.880Z,20.67
2019-05-29T08:36:03.545Z,20.72
2019-05-29T08:37:06.790Z,20.58
2019-05-29T08:38:00.683Z,20.94
2019-05-29T08:38:59.288Z,20.91
2019-05-29T08:39:57.875Z,20.88
2019-05-29T08:40:56.528Z,20.88
2019-05-29T08:42:20.825Z,20.98
2019-05-29T08:42:53.948Z,20.97
2019-05-29T08:43:52.827Z,20.94
2019-05-29T08:44:51.655Z,20.91
2019-05-29T08:45:49.783Z,21.04
2019-05-29T08:47:04.045Z,21.07
2019-05-29T08:47:47.718Z,21.06
2019-05-29T08:48:45.867Z,21.17
2019-05-29T08:49:47.168Z,21.14
2019-05-29T08:50:43.577Z,21.14
2019-05-29T08:51:41.799Z,21.16
2019-05-29T08:52:39.891Z,21.17
2019-05-29T08:53:38.431Z,21.12
2019-05-29T08:54:36.994Z,21.13
2019-05-29T08:55:35.753Z,21.09
2019-05-29T08:56:34.377Z,21.04
2019-05-29T08:57:32.888Z,21.01
2019-05-29T08:58:31.553Z,20.94
2019-05-29T08:59:30.163Z,20.74
2019-05-29T09:00:28.710Z,20.61
2019-05-29T09:01:27.381Z,20.59
2019-05-29T09:02:25.979Z,20.73
2019-05-29T09:03:24.535Z,20.72
2019-05-29T09:04:23.366Z,20.73
2019-05-29T09:05:21.969Z,20.66
2019-05-29T09:06:20.569Z,20.41
2019-05-29T09:07:19.104Z,20.17
2019-05-29T09:08:17.769Z,20.26
2019-05-29T09:09:16.329Z,20.26
2019-05-29T09:10:15.097Z,20.13
2019-05-29T09:11:13.829Z,19.83
2019-05-29T09:12:12.375Z,20.03
2019-05-29T09:13:11.132Z,20.2
2019-05-29T09:14:09.799Z,20.32
2019-05-29T09:15:08.914Z,20.48
2019-05-29T09:16:06.932Z,20.43
2019-05-29T09:17:05.675Z,20.39
2019-05-29T09:18:04.311Z,20.58
2019-05-29T09:19:02.985Z,20.55
2019-05-29T09:20:02.481Z,20.58
2019-05-29T09:21:03.557Z,20.62
2019-05-29T09:21:59.782Z,20.76
2019-05-29T09:22:58.355Z,20.84
2019-05-29T09:23:58.741Z,20.97
2019-05-29T09:24:55.481Z,20.95
2019-05-29T09:25:54.020Z,20.97
2019-05-29T09:26:52.598Z,20.92
2019-05-29T09:27:51.234Z,20.76
2019-05-29T09:28:49.855Z,20.99
2019-05-29T09:29:48.422Z,21.01
2019-05-29T09:30:47.009Z,20.99
2019-05-29T09:31:45.733Z,21.12
2019-05-29T09:32:50.734Z,21.14
2019-05-29T09:33:42.922Z,21.12
2019-05-29T09:34:41.696Z,20.79
2019-05-29T09:35:40.199Z,20.8
2019-05-29T09:36:38.771Z,20.88
2019-05-29T09:37:37.726Z,20.95
2019-05-29T09:38:36.259Z,20.92
2019-05-29T09:39:34.893Z,20.82
2019-05-29T09:40:33.678Z,20.98
2019-05-29T09:41:32.235Z,20.94
2019-05-29T09:42:30.809Z,21.06
2019-05-29T09:43:30.763Z,21.13
2019-05-29T09:44:38.205Z,21.14
2019-05-29T09:45:26.750Z,21.17
2019-05-29T09:46:25.864Z,21.16
2019-05-29T09:47:24.349Z,21.12
2019-05-29T09:48:25.145Z,21.1
2019-05-29T09:49:21.887Z,21.1
2019-05-29T09:50:21.373Z,21.31
2019-05-29T09:51:21.418Z,21.28
2019-05-29T09:52:17.283Z,21.31
2019-05-29T09:53:16.031Z,21.42
2019-05-29T09:54:14.618Z,21.47
2019-05-29T09:55:13.253Z,21.37
2019-05-29T09:56:11.805Z,21.42
2019-05-29T09:57:10.359Z,21.46
2019-05-29T09:58:08.981Z,21.38
2019-05-29T09:59:07.537Z,21.49
2019-05-29T10:00:06.089Z,21.68
2019-05-29T10:01:50.627Z,21.62
2019-05-29T10:02:49.309Z,21.82
2019-05-29T10:03:47.904Z,21.72
2019-05-29T10:04:46.470Z,21.79
2019-05-29T10:05:45.076Z,21.59
2019-05-29T10:06:43.767Z,21.5
2019-05-29T10:07:42.355Z,21.37
2019-05-29T10:08:40.911Z,21.27
2019-05-29T10:09:39.541Z,21.14
2019-05-29T10:10:38.166Z,21.06
2019-05-29T10:11:36.730Z,21.17
2019-05-29T10:12:35.328Z,21.42
2019-05-29T10:13:34.087Z,21.43
2019-05-29T10:14:32.637Z,21.44
2019-05-29T10:15:31.299Z,21.5
2019-05-29T10:16:29.873Z,21.67
2019-05-29T10:17:28.413Z,21.46
2019-05-29T10:18:32.231Z,21.64
2019-05-29T10:19:25.703Z,21.64
2019-05-29T10:20:24.250Z,21.59
2019-05-29T10:21:38.487Z,21.67
2019-05-29T10:22:21.333Z,21.91
2019-05-29T10:23:20.215Z,22.09
2019-05-29T10:24:18.491Z,22.15
2019-05-29T10:25:17.175Z,22.06
2019-05-29T10:26:15.895Z,21.84
2019-05-29T10:27:14.431Z,22.02
2019-05-29T10:28:13.086Z,22.07
2019-05-29T10:29:11.856Z,22
2019-05-29T10:30:10.425Z,21.92
2019-05-29T10:31:08.983Z,21.94
2019-05-29T10:32:07.735Z,21.96
2019-05-29T10:33:06.610Z,21.8
2019-05-29T10:34:05.287Z,21.71
2019-05-29T10:35:03.902Z,21.35
2019-05-29T10:36:03.890Z,21.62
2019-05-29T10:37:01.011Z,21.91
2019-05-29T10:37:59.567Z,21.98
2019-05-29T10:38:58.080Z,22.07
2019-05-29T10:39:56.642Z,22.03
2019-05-29T10:41:05.800Z,22.18
2019-05-29T10:41:54.059Z,22.35
2019-05-29T10:42:53.501Z,22.31
2019-05-29T10:43:51.450Z,22.28
2019-05-29T10:44:51.150Z,22.22
2019-05-29T10:45:49.857Z,22.28
2019-05-29T10:46:48.276Z,22.3
2019-05-29T10:47:47.155Z,22.3
2019-05-29T10:48:48.640Z,22.47
2019-05-29T10:49:43.533Z,22.52
2019-05-29T10:50:42.076Z,22.55
2019-05-29T10:51:57.762Z,22.51
2019-05-29T10:52:39.236Z,22.52
2019-05-29T10:53:37.753Z,22.58
2019-05-29T10:54:39.029Z,22.51
2019-05-29T10:55:34.960Z,22.52
2019-05-29T10:56:33.623Z,22.42
2019-05-29T10:57:32.212Z,22.51
2019-05-29T10:58:30.745Z,22.39
2019-05-29T10:59:29.351Z,22.27
2019-05-29T11:00:27.918Z,22.21
2019-05-29T11:01:26.507Z,22.18
2019-05-29T11:02:25.075Z,22.15
2019-05-29T11:03:23.756Z,22.17
2019-05-29T11:04:22.418Z,22.02
2019-05-29T11:05:20.978Z,21.94
2019-05-29T11:06:19.558Z,21.79
2019-05-29T11:07:18.120Z,21.79
2019-05-29T11:08:16.671Z,21.64
2019-05-29T11:09:15.273Z,21.59
2019-05-29T11:10:14.108Z,21.25
2019-05-29T11:11:12.577Z,21.28
2019-05-29T11:12:11.275Z,21.29
2019-05-29T11:13:09.949Z,21.03
2019-05-29T11:14:08.562Z,21.28
2019-05-29T11:15:20.606Z,21.28
2019-05-29T11:16:05.709Z,21.42
2019-05-29T11:17:04.296Z,21.46
2019-05-29T11:18:02.881Z,21.49
2019-05-29T11:19:01.579Z,21.72
2019-05-29T11:20:00.236Z,21.79
2019-05-29T11:20:58.847Z,21.88
2019-05-29T11:22:01.540Z,21.71
2019-05-29T11:22:56.127Z,21.74
2019-05-29T11:23:55.910Z,21.83
2019-05-29T11:24:54.072Z,21.79
2019-05-29T11:25:52.109Z,21.65
2019-05-29T11:26:50.394Z,21.82
2019-05-29T11:27:50.258Z,21.98
2019-05-29T11:28:48.318Z,21.9
2019-05-29T11:29:46.305Z,21.75
2019-05-29T11:30:44.866Z,21.67
2019-05-29T11:31:43.466Z,21.77
2019-05-29T11:32:42.041Z,21.94
2019-05-29T11:33:40.640Z,22.02
2019-05-29T11:34:39.307Z,22.17
2019-05-29T11:35:37.928Z,22.28
2019-05-29T11:36:36.455Z,22.49
2019-05-29T11:37:35.018Z,22.55
2019-05-29T11:38:33.567Z,22.2
2019-05-29T11:39:32.119Z,22.36
2019-05-29T11:40:31.081Z,22.31
2019-05-29T11:41:29.331Z,22.62
2019-05-29T11:42:28.367Z,22.58
2019-05-29T11:43:26.682Z,22.46
2019-05-29T11:44:25.358Z,22.45
2019-05-29T11:45:24.018Z,22.45
2019-05-29T11:46:22.544Z,22.28
2019-05-29T11:47:21.119Z,22.2
2019-05-29T11:48:19.687Z,22.36
2019-05-29T11:49:18.260Z,22.49
2019-05-29T11:50:19.765Z,22.65
2019-05-29T11:51:15.606Z,22.58
2019-05-29T11:52:24.029Z,22.65
2019-05-29T11:53:12.939Z,22.92
2019-05-29T11:54:11.648Z,23.12
2019-05-29T11:55:10.256Z,22.86
2019-05-29T11:56:08.820Z,22.76
2019-05-29T11:57:07.382Z,22.97
2019-05-29T11:58:06.066Z,23.13
2019-05-29T11:59:04.654Z,23.35
2019-05-29T12:00:13.927Z,23.31
2019-05-29T12:01:01.990Z,23.47
2019-05-29T12:02:02.945Z,23.36
2019-05-29T12:02:59.663Z,23.5
2019-05-29T12:04:17.901Z,23.25
2019-05-29T12:04:57.205Z,22.97
2019-05-29T12:05:55.431Z,22.73
2019-05-29T12:06:55.233Z,22.55
2019-05-29T12:07:53.422Z,22.54
2019-05-29T12:08:51.477Z,22.28
2019-05-29T12:09:51.229Z,22.22
2019-05-29T12:10:48.516Z,21.91
2019-05-29T12:11:47.060Z,21.74
2019-05-29T12:12:45.752Z,21.68
2019-05-29T12:13:44.387Z,21.54
2019-05-29T12:14:58.588Z,21.28
2019-05-29T12:15:41.696Z,21.14
2019-05-29T12:16:40.279Z,21.12
2019-05-29T12:17:39.076Z,21.19
2019-05-29T12:18:37.775Z,21.13
2019-05-29T12:19:36.351Z,21.43
2019-05-29T12:20:34.929Z,21.5
2019-05-29T12:21:33.619Z,21.68
2019-05-29T12:22:32.190Z,21.46
2019-05-29T12:23:30.766Z,21.25
2019-05-29T12:24:29.476Z,21.17
2019-05-29T12:25:28.040Z,21.04
2019-05-29T12:26:26.588Z,21.07
2019-05-29T12:27:25.190Z,21.24
2019-05-29T12:28:23.729Z,21.35
2019-05-29T12:29:22.239Z,21.28
2019-05-29T12:30:20.866Z,21.22
2019-05-29T12:31:19.374Z,21.46
2019-05-29T12:32:17.958Z,21.82
2019-05-29T12:33:16.487Z,22.02
2019-05-29T12:34:19.016Z,22.15
2019-05-29T12:35:13.975Z,22.15
2019-05-29T12:36:12.528Z,22.1
2019-05-29T12:37:11.183Z,22.3
2019-05-29T12:38:09.878Z,22.33
2019-05-29T12:39:08.445Z,22.51
2019-05-29T12:40:07.056Z,22.8
2019-05-29T12:41:05.771Z,22.94
2019-05-29T12:42:04.309Z,23.19
2019-05-29T12:43:03.731Z,23.43
2019-05-29T12:44:01.783Z,23.6
2019-05-29T12:45:01.855Z,23.76
2019-05-29T12:46:00.068Z,23.75
2019-05-29T12:46:57.769Z,23.87
2019-05-29T12:47:57.664Z,23.69
2019-05-29T12:48:55.359Z,23.8
2019-05-29T12:49:53.662Z,23.87
2019-05-29T12:50:53.864Z,23.8
2019-05-29T12:51:50.818Z,23.9
2019-05-29T12:52:49.551Z,23.98
2019-05-29T12:53:48.144Z,24.09
2019-05-29T12:54:46.750Z,24.09
2019-05-29T12:55:45.378Z,24.05
2019-05-29T12:56:43.931Z,23.98
2019-05-29T12:57:42.598Z,23.95
2019-05-29T12:58:41.539Z,23.91
2019-05-29T12:59:40.092Z,23.84